createdAt,value
2023-01-15T00:02:18.054Z,99992.34
2023-01-15T00:04:44.755Z,99968.41
2023-01-15T00:07:11.354Z,99941.94
2023-01-15T00:09:37.850Z,99975.28
2023-01-15T00:12:04.631Z,99967.66
2023-01-15T00:14:31.138Z,99984.69
2023-01-15T00:16:57.716Z,99957.28
2023-01-15T00:19:24.341Z,99954.78
2023-01-15T00:21:51.514Z,99941.16
2023-01-15T00:24:36.414Z,99932.56
2023-01-15T00:27:21.609Z,99936.75
2023-01-15T00:29:48.366Z,99947.97
2023-01-15T00:32:14.810Z,99954.84
2023-01-15T00:34:41.349Z,99970.28
2023-01-15T00:37:08.150Z,99955.72
2023-01-15T00:39:35.701Z,99959.16
2023-01-15T00:42:02.634Z,99936.22
2023-01-15T00:44:29.284Z,99938.69
2023-01-15T00:46:55.881Z,99953.31
2023-01-15T00:49:22.469Z,99953.41
2023-01-15T00:51:50.116Z,99960.28
2023-01-15T00:54:17.337Z,99961.94
2023-01-15T00:56:44.083Z,99938.00
2023-01-15T00:59:10.685Z,99928.50
2023-01-15T01:01:37.355Z,99931.06
2023-01-15T01:04:04.206Z,99919.94
2023-01-15T01:06:30.920Z,99919.97
2023-01-15T01:08:57.552Z,99937.91
2023-01-15T01:11:26.734Z,99939.56
2023-01-15T01:13:55.209Z,99937.91
2023-01-15T01:16:42.511Z,99947.44
2023-01-15T01:19:16.074Z,99950.00
2023-01-15T01:21:44.006Z,99919.22
2023-01-15T01:24:12.643Z,99937.09
2023-01-15T01:26:39.654Z,99897.00
2023-01-15T01:29:06.684Z,99910.72
2023-01-15T01:31:33.629Z,99942.47
2023-01-15T01:34:00.276Z,99922.72
2023-01-15T01:36:34.541Z,99948.38
2023-01-15T01:39:01.987Z,99912.59
2023-01-15T01:41:29.294Z,99901.53
2023-01-15T01:44:07.192Z,99962.16
2023-01-15T01:46:36.656Z,99971.66
2023-01-15T01:49:14.676Z,99957.19
2023-01-15T01:51:45.505Z,99947.72
2023-01-15T01:54:17.611Z,99962.22
2023-01-15T01:56:44.396Z,99971.72
2023-01-15T01:59:11.936Z,99922.06
2023-01-15T02:01:38.708Z,99938.31
2023-01-15T02:04:10.756Z,99941.84
2023-01-15T02:06:39.209Z,99970.84
2023-01-15T02:09:06.195Z,99967.56
2023-01-15T02:11:34.346Z,99942.78
2023-01-15T02:14:08.101Z,99990.69
2023-01-15T02:16:57.306Z,99967.66
2023-01-15T02:19:35.359Z,99960.78
2023-01-15T02:22:12.321Z,99983.88
2023-01-15T02:24:41.751Z,99989.88
2023-01-15T02:27:24.056Z,99952.25
2023-01-15T02:29:53.616Z,99978.78
2023-01-15T02:32:32.005Z,99968.50
2023-01-15T02:35:06.100Z,99981.38
2023-01-15T02:37:37.491Z,99945.44
2023-01-15T02:40:06.884Z,99926.69
2023-01-15T02:42:36.254Z,99920.72
2023-01-15T02:45:05.620Z,99947.28
2023-01-15T02:47:35.997Z,99967.78
2023-01-15T02:50:06.299Z,99967.75
2023-01-15T02:52:39.264Z,99960.81
2023-01-15T02:55:11.672Z,99970.28
2023-01-15T02:57:41.955Z,99954.91
2023-01-15T03:00:13.970Z,99931.81
2023-01-15T03:02:48.305Z,99965.28
2023-01-15T03:05:26.485Z,99937.88
2023-01-15T03:07:56.791Z,99918.22
2023-01-15T03:10:34.998Z,99928.41
2023-01-15T03:13:03.442Z,99928.41
2023-01-15T03:16:00.751Z,99914.81
2023-01-15T03:18:30.603Z,99954.13
2023-01-15T03:21:02.078Z,99910.47
2023-01-15T03:23:30.421Z,99935.25
2023-01-15T03:25:57.609Z,99940.34
2023-01-15T03:28:31.611Z,99921.56
2023-01-15T03:30:59.208Z,99930.84
2023-01-15T03:33:26.767Z,99907.88
2023-01-15T03:35:58.465Z,99936.13
2023-01-15T03:38:33.943Z,99902.88
2023-01-15T03:41:10.439Z,99944.69
2023-01-15T03:44:14.605Z,99909.69
2023-01-15T03:46:55.232Z,99930.19
2023-01-15T03:49:40.034Z,99919.06
2023-01-15T03:52:37.248Z,99931.88
2023-01-15T03:55:03.690Z,99938.84
2023-01-15T03:57:34.493Z,99917.50
2023-01-15T04:00:09.279Z,99918.34
2023-01-15T04:02:37.631Z,99921.75
2023-01-15T04:05:04.847Z,99899.47
2023-01-15T04:07:32.332Z,99912.25
2023-01-15T04:09:59.008Z,99918.22
2023-01-15T04:12:28.092Z,99905.47
2023-01-15T04:14:54.684Z,99928.53
2023-01-15T04:17:21.268Z,99921.69
2023-01-15T04:19:47.737Z,99912.34
2023-01-15T04:22:14.369Z,99915.00
2023-01-15T04:24:41.932Z,99928.63
2023-01-15T04:27:08.429Z,99945.72
2023-01-15T04:29:35.022Z,99911.56
2023-01-15T04:32:01.549Z,99938.88
2023-01-15T04:34:28.790Z,99940.50
2023-01-15T04:36:56.394Z,99928.59
2023-01-15T04:39:23.569Z,99884.13
2023-01-15T04:42:08.831Z,99903.66
2023-01-15T04:44:36.541Z,99898.53
2023-01-15T04:47:03.418Z,99886.56
2023-01-15T04:49:30.038Z,99875.47
2023-01-15T04:51:56.981Z,99869.34
2023-01-15T04:54:23.538Z,99850.63
2023-01-15T04:56:53.014Z,99885.66
2023-01-15T04:59:23.082Z,99895.94
2023-01-15T05:02:02.300Z,99874.59
2023-01-15T05:04:30.819Z,99907.09
2023-01-15T05:06:57.465Z,99873.75
2023-01-15T05:09:23.968Z,99885.63
2023-01-15T05:11:50.558Z,99892.50
2023-01-15T05:14:17.066Z,99901.22
2023-01-15T05:16:43.806Z,99904.56
2023-01-15T05:19:10.828Z,99883.13
2023-01-15T05:21:41.657Z,99867.72
2023-01-15T05:24:09.211Z,99866.06
2023-01-15T05:26:36.951Z,99850.63
2023-01-15T05:29:04.729Z,99878.72
2023-01-15T05:31:33.768Z,99893.31
2023-01-15T05:34:00.985Z,99859.88
2023-01-15T05:36:31.717Z,99873.56
2023-01-15T05:39:02.070Z,99858.00
2023-01-15T05:41:48.683Z,99853.66
2023-01-15T05:44:20.329Z,99834.88
2023-01-15T05:46:48.503Z,99856.91
2023-01-15T05:49:18.377Z,99864.72
2023-01-15T05:51:46.082Z,99853.41
2023-01-15T05:54:16.626Z,99855.00
2023-01-15T05:56:45.654Z,99819.97
2023-01-15T05:59:13.539Z,99821.66
2023-01-15T06:01:40.851Z,99846.22
2023-01-15T06:04:10.143Z,99842.72
2023-01-15T06:06:36.788Z,99823.00
2023-01-15T06:09:04.591Z,99817.88
2023-01-15T06:11:31.783Z,99853.78
2023-01-15T06:13:59.192Z,99843.44
2023-01-15T06:16:26.128Z,99832.41
2023-01-15T06:18:53.262Z,99815.25
2023-01-15T06:21:20.104Z,99823.78
2023-01-15T06:23:46.993Z,99824.53
2023-01-15T06:26:17.429Z,99833.97
2023-01-15T06:28:44.796Z,99779.38
2023-01-15T06:31:14.639Z,99814.34
2023-01-15T06:33:41.827Z,99834.13
2023-01-15T06:36:11.407Z,99836.66
2023-01-15T06:38:38.907Z,99808.44
2023-01-15T06:41:30.309Z,99846.19
2023-01-15T06:44:15.361Z,99818.78
2023-01-15T06:47:04.891Z,99845.28
2023-01-15T06:49:32.429Z,99826.56
2023-01-15T06:51:59.290Z,99848.66
2023-01-15T06:54:26.508Z,99859.06
2023-01-15T06:56:53.928Z,99851.38
2023-01-15T06:59:20.788Z,99845.28
2023-01-15T07:01:47.806Z,99821.47
2023-01-15T07:04:15.484Z,99843.59
2023-01-15T07:06:42.293Z,99829.16
2023-01-15T07:09:08.943Z,99833.50
2023-01-15T07:11:35.550Z,99823.25
2023-01-15T07:14:07.889Z,99812.38
2023-01-15T07:16:36.250Z,99799.31
2023-01-15T07:19:04.431Z,99838.56
2023-01-15T07:21:31.259Z,99839.47
2023-01-15T07:24:01.924Z,99836.03
2023-01-15T07:26:28.758Z,99823.19
2023-01-15T07:28:55.497Z,99801.91
2023-01-15T07:31:22.156Z,99813.00
2023-01-15T07:33:48.945Z,99801.06
2023-01-15T07:36:15.754Z,99807.19
2023-01-15T07:38:42.395Z,99828.47
2023-01-15T07:41:27.599Z,99840.44
2023-01-15T07:44:12.629Z,99819.13
2023-01-15T07:46:58.080Z,99856.69
2023-01-15T07:49:43.478Z,99811.47
2023-01-15T07:52:10.062Z,99843.78
2023-01-15T07:54:36.649Z,99837.91
2023-01-15T07:57:03.975Z,99843.81
2023-01-15T07:59:30.798Z,99819.88
2023-01-15T08:01:57.453Z,99803.59
2023-01-15T08:04:23.992Z,99824.09
2023-01-15T08:06:50.641Z,99864.16
2023-01-15T08:09:17.349Z,99830.84
2023-01-15T08:12:02.305Z,99827.41
2023-01-15T08:14:47.501Z,99829.72
2023-01-15T08:17:14.128Z,99842.53
2023-01-15T08:19:40.730Z,99841.66
2023-01-15T08:22:07.284Z,99830.53
2023-01-15T08:24:33.820Z,99827.03
2023-01-15T08:27:00.434Z,99848.56
2023-01-15T08:29:28.098Z,99841.56
2023-01-15T08:31:54.931Z,99812.47
2023-01-15T08:34:21.960Z,99863.66
2023-01-15T08:36:49.784Z,99843.16
2023-01-15T08:39:16.287Z,99859.25
2023-01-15T08:41:43.002Z,99844.56
2023-01-15T08:44:10.390Z,99857.28
2023-01-15T08:46:36.893Z,99838.44
2023-01-15T08:49:04.723Z,99839.22
2023-01-15T08:51:32.455Z,99819.47
2023-01-15T08:53:58.977Z,99826.16
2023-01-15T08:56:25.499Z,99823.59
2023-01-15T08:58:52.113Z,99866.19
2023-01-15T09:01:18.953Z,99860.91
2023-01-15T09:03:45.579Z,99841.13
2023-01-15T09:06:13.510Z,99865.88
2023-01-15T09:08:41.050Z,99854.97
2023-01-15T09:11:09.706Z,99848.78
2023-01-15T09:13:37.894Z,99891.34
2023-01-15T09:16:06.168Z,99853.75
2023-01-15T09:18:33.194Z,99879.09
2023-01-15T09:21:00.031Z,99880.09
2023-01-15T09:23:29.324Z,99910.88
2023-01-15T09:25:57.877Z,99874.00
2023-01-15T09:28:24.911Z,99878.34
2023-01-15T09:30:51.904Z,99860.38
2023-01-15T09:33:18.769Z,99909.78
2023-01-15T09:35:45.806Z,99909.88
2023-01-15T09:38:20.933Z,99903.09
2023-01-15T09:40:55.950Z,99902.97
2023-01-15T09:43:26.703Z,99917.56
2023-01-15T09:46:03.971Z,99862.22
2023-01-15T09:48:40.294Z,99930.38
2023-01-15T09:51:34.020Z,99911.81
2023-01-15T09:54:23.719Z,99901.38
2023-01-15T09:56:50.671Z,99906.38
2023-01-15T09:59:27.135Z,99918.31
2023-01-15T10:01:54.064Z,99926.81
2023-01-15T10:04:47.366Z,99955.03
2023-01-15T10:07:28.993Z,99933.66
2023-01-15T10:10:04.507Z,99938.78
2023-01-15T10:12:36.141Z,99943.81
2023-01-15T10:15:23.169Z,99976.41
2023-01-15T10:17:55.532Z,99979.69
2023-01-15T10:20:42.255Z,99960.94
2023-01-15T10:23:25.505Z,99989.84
2023-01-15T10:26:01.452Z,99984.69
2023-01-15T10:28:47.071Z,99951.47
2023-01-15T10:31:20.605Z,99960.53
2023-01-15T10:34:35.274Z,99987.81
2023-01-15T10:37:26.610Z,99952.72
2023-01-15T10:40:30.969Z,99967.00
2023-01-15T10:43:21.715Z,99944.66
2023-01-15T10:45:54.013Z,99945.50
2023-01-15T10:48:38.304Z,99971.75
2023-01-15T10:51:19.423Z,99961.38
2023-01-15T10:54:38.131Z,99984.09
2023-01-15T10:57:12.616Z,99962.75
2023-01-15T10:59:51.467Z,99972.94
2023-01-15T11:02:25.017Z,99970.09
2023-01-15T11:04:51.980Z,99970.72
2023-01-15T11:07:22.072Z,99946.56
2023-01-15T11:09:48.823Z,99988.06
2023-01-15T11:12:47.865Z,99975.81
2023-01-15T11:15:42.721Z,99967.94
2023-01-15T11:18:36.518Z,99958.41
2023-01-15T11:21:03.549Z,99968.41
2023-01-15T11:23:36.338Z,99990.59
2023-01-15T11:26:03.489Z,99984.56
2023-01-15T11:28:31.815Z,99981.59
2023-01-15T11:30:59.674Z,99988.06
2023-01-15T11:33:28.873Z,99971.06
2023-01-15T11:35:58.769Z,99978.69
2023-01-15T11:38:30.932Z,99980.44
2023-01-15T11:41:00.562Z,99940.75
2023-01-15T11:43:48.246Z,99942.28
2023-01-15T11:46:50.659Z,99981.75
2023-01-15T11:49:38.237Z,99975.56
2023-01-15T11:52:22.961Z,99932.91
2023-01-15T11:54:53.078Z,99961.63
2023-01-15T11:57:33.126Z,99916.41
2023-01-15T11:59:59.974Z,99912.88
2023-01-15T12:02:41.153Z,99909.28
2023-01-15T12:05:17.844Z,99916.88
2023-01-15T12:07:45.980Z,99932.72
2023-01-15T12:10:41.321Z,99939.47
2023-01-15T12:13:42.320Z,99935.22
2023-01-15T12:16:30.273Z,99935.84
2023-01-15T12:19:12.710Z,99937.47
2023-01-15T12:21:55.296Z,99894.91
2023-01-15T12:24:37.316Z,99930.75
2023-01-15T12:27:22.584Z,99928.97
2023-01-15T12:30:06.492Z,99915.34
2023-01-15T12:32:41.726Z,99926.94
2023-01-15T12:35:17.611Z,99897.81
2023-01-15T12:37:54.134Z,99929.28
2023-01-15T12:40:47.448Z,99924.22
2023-01-15T12:44:00.016Z,99895.19
2023-01-15T12:46:30.162Z,99888.38
2023-01-15T12:49:30.622Z,99911.91
2023-01-15T12:52:10.831Z,99894.94
2023-01-15T12:54:46.828Z,99897.50
2023-01-15T12:57:25.846Z,99895.94
2023-01-15T13:00:19.785Z,99855.25
2023-01-15T13:03:14.846Z,99886.16
2023-01-15T13:05:53.735Z,99849.22
2023-01-15T13:08:38.499Z,99855.00
2023-01-15T13:11:11.771Z,99843.16
2023-01-15T13:13:40.930Z,99849.88
2023-01-15T13:16:44.337Z,99838.94
2023-01-15T13:19:19.902Z,99868.63
2023-01-15T13:21:52.771Z,99841.66
2023-01-15T13:24:54.762Z,99866.59
2023-01-15T13:27:45.328Z,99879.41
2023-01-15T13:30:24.327Z,99857.31
2023-01-15T13:32:56.681Z,99840.13
2023-01-15T13:35:30.470Z,99862.97
2023-01-15T13:38:01.126Z,99841.31
2023-01-15T13:40:34.871Z,99863.31
2023-01-15T13:43:03.785Z,99824.06
2023-01-15T13:45:33.376Z,99852.75
2023-01-15T13:48:14.466Z,99788.22
2023-01-15T13:50:53.258Z,99808.81
2023-01-15T13:53:28.505Z,99826.91
2023-01-15T13:56:07.366Z,99797.22
2023-01-15T13:58:55.143Z,99809.16
2023-01-15T14:01:30.912Z,99839.88
2023-01-15T14:04:05.240Z,99835.72
2023-01-15T14:06:46.816Z,99798.44
2023-01-15T14:09:34.823Z,99829.06
2023-01-15T14:12:07.555Z,99838.53
2023-01-15T14:14:50.239Z,99834.25
2023-01-15T14:17:41.872Z,99832.63
2023-01-15T14:20:22.343Z,99831.88
2023-01-15T14:23:25.535Z,99800.53
2023-01-15T14:26:02.889Z,99787.75
2023-01-15T14:29:03.678Z,99827.81
2023-01-15T14:31:51.216Z,99810.13
2023-01-15T14:34:28.860Z,99830.78
2023-01-15T14:37:01.676Z,99829.19
2023-01-15T14:39:46.338Z,99817.19
2023-01-15T14:42:40.736Z,99822.38
2023-01-15T14:45:13.192Z,99823.19
2023-01-15T14:47:57.357Z,99790.13
2023-01-15T14:50:40.535Z,99821.47
2023-01-15T14:53:16.240Z,99799.34
2023-01-15T14:55:48.887Z,99823.19
2023-01-15T14:58:31.040Z,99801.88
2023-01-15T15:01:17.996Z,99823.09
2023-01-15T15:03:52.827Z,99824.91
2023-01-15T15:06:20.095Z,99790.66
2023-01-15T15:08:47.495Z,99790.50
2023-01-15T15:12:06.175Z,99811.56
2023-01-15T15:14:39.007Z,99769.91
2023-01-15T15:17:16.294Z,99803.78
2023-01-15T15:19:49.236Z,99775.78
2023-01-15T15:22:22.257Z,99741.84
2023-01-15T15:24:51.934Z,99760.41
2023-01-15T15:27:21.092Z,99718.91
2023-01-15T15:29:47.869Z,99781.03
2023-01-15T15:32:20.162Z,99750.34
2023-01-15T15:34:51.153Z,99794.69
2023-01-15T15:37:28.145Z,99759.78
2023-01-15T15:40:03.718Z,99776.16
2023-01-15T15:43:21.821Z,99797.63
2023-01-15T15:46:12.514Z,99782.50
2023-01-15T15:48:42.368Z,99775.88
2023-01-15T15:51:34.953Z,99797.31
2023-01-15T15:54:12.037Z,99759.19
2023-01-15T15:56:42.995Z,99800.19
2023-01-15T15:59:19.145Z,99755.16
2023-01-15T16:01:46.013Z,99785.09
2023-01-15T16:04:18.396Z,99758.03
2023-01-15T16:06:45.515Z,99778.59
2023-01-15T16:09:12.350Z,99795.00
2023-01-15T16:11:40.759Z,99772.91
2023-01-15T16:14:13.015Z,99773.22
2023-01-15T16:16:39.885Z,99808.13
2023-01-15T16:19:10.533Z,99810.84
2023-01-15T16:21:40.731Z,99776.06
2023-01-15T16:24:09.831Z,99812.78
2023-01-15T16:26:46.662Z,99807.72
2023-01-15T16:29:26.787Z,99787.31
2023-01-15T16:31:56.810Z,99766.22
2023-01-15T16:34:26.792Z,99811.56
2023-01-15T16:36:53.372Z,99792.03
2023-01-15T16:39:23.041Z,99816.88
2023-01-15T16:41:50.955Z,99813.50
2023-01-15T16:44:54.974Z,99809.44
2023-01-15T16:47:59.662Z,99807.69
2023-01-15T16:50:29.474Z,99797.59
2023-01-15T16:53:02.166Z,99786.63
2023-01-15T16:55:34.840Z,99801.31
2023-01-15T16:58:13.415Z,99803.94
2023-01-15T17:00:45.984Z,99786.91
2023-01-15T17:03:14.671Z,99736.63
2023-01-15T17:05:41.762Z,99753.81
2023-01-15T17:08:39.763Z,99792.19
2023-01-15T17:11:17.855Z,99724.91
2023-01-15T17:13:44.424Z,99755.63
2023-01-15T17:16:13.919Z,99786.38
2023-01-15T17:18:40.742Z,99718.16
2023-01-15T17:21:31.657Z,99754.00
2023-01-15T17:23:59.928Z,99743.03
2023-01-15T17:26:27.845Z,99748.16
2023-01-15T17:28:54.574Z,99737.97
2023-01-15T17:31:28.575Z,99753.41
2023-01-15T17:33:55.842Z,99739.84
2023-01-15T17:36:22.854Z,99741.59
2023-01-15T17:38:50.167Z,99734.84
2023-01-15T17:41:18.585Z,99760.34
2023-01-15T17:43:45.609Z,99751.00
2023-01-15T17:46:12.461Z,99767.25
2023-01-15T17:48:39.116Z,99758.81
2023-01-15T17:51:11.820Z,99754.59
2023-01-15T17:53:38.515Z,99733.25
2023-01-15T17:56:24.543Z,99746.03
2023-01-15T17:59:09.731Z,99738.41
2023-01-15T18:01:59.336Z,99769.16
2023-01-15T18:04:47.286Z,99768.25
2023-01-15T18:07:20.825Z,99735.00
2023-01-15T18:09:52.946Z,99697.50
2023-01-15T18:12:19.597Z,99702.69
2023-01-15T18:14:46.150Z,99723.19
2023-01-15T18:17:12.906Z,99755.59
2023-01-15T18:19:39.502Z,99751.28
2023-01-15T18:22:06.167Z,99711.19
2023-01-15T18:24:32.647Z,99702.56
2023-01-15T18:26:59.173Z,99709.50
2023-01-15T18:29:25.713Z,99698.34
2023-01-15T18:31:52.311Z,99710.25
2023-01-15T18:34:18.951Z,99689.06
2023-01-15T18:36:45.529Z,99699.31
2023-01-15T18:39:13.522Z,99700.13
2023-01-15T18:41:40.796Z,99706.19
2023-01-15T18:44:31.493Z,99682.28
2023-01-15T18:47:04.266Z,99686.63
2023-01-15T18:49:31.245Z,99682.34
2023-01-15T18:52:16.991Z,99680.69
2023-01-15T18:54:43.591Z,99716.53
2023-01-15T18:57:10.288Z,99681.59
2023-01-15T18:59:36.989Z,99690.19
2023-01-15T19:02:04.106Z,99691.84
2023-01-15T19:04:31.117Z,99681.69
2023-01-15T19:06:57.915Z,99677.41
2023-01-15T19:09:24.643Z,99652.69
2023-01-15T19:11:52.560Z,99685.88
2023-01-15T19:14:38.792Z,99670.63
2023-01-15T19:17:24.615Z,99662.03
2023-01-15T19:19:51.198Z,99636.47
2023-01-15T19:22:56.293Z,99631.41
2023-01-15T19:25:23.453Z,99630.56
2023-01-15T19:27:52.935Z,99661.16
2023-01-15T19:30:19.916Z,99632.22
2023-01-15T19:32:46.535Z,99643.31
2023-01-15T19:35:13.411Z,99639.00
2023-01-15T19:37:39.977Z,99627.97
2023-01-15T19:40:10.141Z,99616.91
2023-01-15T19:42:55.400Z,99622.06
2023-01-15T19:45:40.817Z,99612.66
2023-01-15T19:48:31.386Z,99632.34
2023-01-15T19:50:57.996Z,99594.03
2023-01-15T19:53:24.744Z,99634.91
2023-01-15T19:55:51.495Z,99565.81
2023-01-15T19:58:18.200Z,99593.06
2023-01-15T20:00:48.569Z,99568.44
2023-01-15T20:03:15.997Z,99608.38
2023-01-15T20:05:43.969Z,99581.94
2023-01-15T20:08:15.776Z,99541.88
2023-01-15T20:10:44.472Z,99533.34
2023-01-15T20:13:32.158Z,99554.56
2023-01-15T20:16:01.747Z,99574.13
2023-01-15T20:18:28.955Z,99542.59
2023-01-15T20:20:56.120Z,99572.38
2023-01-15T20:23:22.959Z,99521.25
2023-01-15T20:25:52.941Z,99545.97
2023-01-15T20:28:20.649Z,99501.69
2023-01-15T20:30:47.275Z,99515.28
2023-01-15T20:33:14.159Z,99515.31
2023-01-15T20:35:40.884Z,99501.59
2023-01-15T20:38:07.623Z,99488.00
2023-01-15T20:40:34.154Z,99464.09
2023-01-15T20:43:19.284Z,99445.31
2023-01-15T20:45:46.254Z,99458.09
2023-01-15T20:48:12.911Z,99475.91
2023-01-15T20:51:00.956Z,99481.84
2023-01-15T20:53:33.694Z,99467.41
2023-01-15T20:56:10.713Z,99438.47
2023-01-15T20:58:37.513Z,99409.38
2023-01-15T21:01:06.715Z,99405.84
2023-01-15T21:03:33.650Z,99388.00
2023-01-15T21:06:00.317Z,99393.94
2023-01-15T21:08:27.512Z,99410.91
2023-01-15T21:10:55.054Z,99436.47
2023-01-15T21:13:22.966Z,99412.56
2023-01-15T21:15:55.611Z,99373.41
2023-01-15T21:18:22.224Z,99402.22
2023-01-15T21:20:48.992Z,99371.59
2023-01-15T21:23:15.662Z,99351.13
2023-01-15T21:25:42.324Z,99337.41
2023-01-15T21:28:09.115Z,99353.50
2023-01-15T21:30:35.818Z,99349.19
2023-01-15T21:33:02.362Z,99315.06
2023-01-15T21:35:29.029Z,99279.25
2023-01-15T21:37:55.617Z,99302.94
2023-01-15T21:40:22.320Z,99288.41
2023-01-15T21:43:07.443Z,99276.41
2023-01-15T21:45:34.115Z,99261.81
2023-01-15T21:48:01.281Z,99253.31
2023-01-15T21:50:27.986Z,99238.06
2023-01-15T21:52:54.699Z,99251.56
2023-01-15T21:55:21.266Z,99234.69
2023-01-15T21:57:49.285Z,99249.06
2023-01-15T22:00:17.781Z,99204.03
2023-01-15T22:02:44.474Z,99233.66
2023-01-15T22:05:11.255Z,99235.28
2023-01-15T22:07:37.978Z,99204.66
2023-01-15T22:10:05.358Z,99229.16
2023-01-15T22:12:33.975Z,99215.50
2023-01-15T22:15:00.441Z,99196.84
2023-01-15T22:17:27.087Z,99212.09
2023-01-15T22:19:53.724Z,99183.16
2023-01-15T22:22:20.466Z,99150.81
2023-01-15T22:24:47.354Z,99147.25
2023-01-15T22:27:15.867Z,99184.47
2023-01-15T22:29:43.340Z,99161.28
2023-01-15T22:32:12.060Z,99147.53
2023-01-15T22:34:39.023Z,99149.91
2023-01-15T22:37:05.955Z,99112.41
2023-01-15T22:39:32.944Z,99068.28
2023-01-15T22:42:19.170Z,99081.59
2023-01-15T22:44:46.937Z,99107.59
2023-01-15T22:47:13.643Z,99098.34
2023-01-15T22:49:40.295Z,99084.50
2023-01-15T22:52:07.442Z,99062.91
2023-01-15T22:54:34.099Z,99034.63
2023-01-15T22:57:01.032Z,99011.50
2023-01-15T22:59:27.673Z,98993.47
2023-01-15T23:01:54.396Z,99017.88
2023-01-15T23:04:23.510Z,99022.59
2023-01-15T23:06:51.802Z,98965.66
2023-01-15T23:09:20.031Z,98991.75
2023-01-15T23:11:46.758Z,98972.88
2023-01-15T23:14:17.060Z,98960.84
2023-01-15T23:16:44.188Z,98981.06
2023-01-15T23:19:12.186Z,98923.22
2023-01-15T23:21:40.223Z,98961.16
2023-01-15T23:24:07.102Z,98960.19
2023-01-15T23:26:34.574Z,98948.13
2023-01-15T23:29:01.245Z,98880.78
2023-01-15T23:31:28.269Z,98931.50
2023-01-15T23:33:55.296Z,98921.06
2023-01-15T23:36:22.344Z,98863.31
2023-01-15T23:38:49.145Z,98900.28
2023-01-15T23:41:18.077Z,98878.03
2023-01-15T23:44:03.544Z,98847.41
2023-01-15T23:46:33.522Z,98835.25
2023-01-15T23:49:05.241Z,98876.44
2023-01-15T23:51:32.894Z,98871.16
2023-01-15T23:54:00.184Z,98805.72
2023-01-15T23:56:27.939Z,98800.38
2023-01-15T23:58:54.560Z,98817.00
